Brugge Air Base ETUR

Flugplatz Daten

Name: Brugge Air Base

Ident: ETUR

Lat: 51,1996994

Long: 6,132080078

Platzhöhe: 0 ft

IataCode: BGN

City:

Metar

2022/02/02 17:02
KVQQ 021702Z 09008KT 10SM FEW065 25/13 A3019 RMK RETURN FROM ATC ZERO.

Taf

Gewünschte Webcam nicht vorhanden? Dann fügen Sie eine hinzu. Sie wird dann so schnell wie möglich freigeschaltet
Url: Title: